Time;durP1;ratioP1;P1;durP2;ratioP2;P2;SDS_P1;SDS_P2;PMS_P1;PMS_P2;Temp;Humidity;BMP_temperature;BMP_pressure;BME280_temperature;BME280_humidity;BME280_pressure;Samples;Min_cycle;Max_cycle;Signal;HPM_P1;HPM_P2
2023/10/18 00:01:33;;;;;;;17.48;7.57;;;;;;;;;;4955816;28;20042;-70
2023/10/18 00:03:59;;;;;;;12.55;7.57;;;;;;;;;;4954584;28;20109;-70
2023/10/18 00:06:26;;;;;;;15.05;7.57;;;;;;;;;;4952871;28;20078;-70
2023/10/18 00:08:58;;;;;;;15.70;7.80;;;;;;;;;;4936067;28;20137;-69
2023/10/18 00:11:27;;;;;;;15.35;8.23;;;;;;;;;;4960072;28;20485;-70
2023/10/18 00:13:54;;;;;;;15.48;7.45;;;;;;;;;;4953074;28;20665;-70
2023/10/18 00:16:21;;;;;;;17.55;8.30;;;;;;;;;;4950686;28;20054;-70
2023/10/18 00:18:47;;;;;;;13.93;7.60;;;;;;;;;;4952661;28;20097;-70
2023/10/18 00:21:13;;;;;;;13.95;8.27;;;;;;;;;;4951594;28;20055;-70
2023/10/18 00:23:39;;;;;;;15.38;8.15;;;;;;;;;;4949812;28;20505;-69
2023/10/18 00:26:06;;;;;;;15.13;7.93;;;;;;;;;;4954146;28;20043;-70
2023/10/18 00:28:32;;;;;;;17.83;8.27;;;;;;;;;;4949463;28;20059;-69
2023/10/18 00:30:59;;;;;;;15.00;8.48;;;;;;;;;;4953423;28;20841;-70
2023/10/18 00:33:26;;;;;;;16.48;8.77;;;;;;;;;;4951469;28;20043;-69
2023/10/18 00:35:57;;;;;;;17.08;9.38;;;;;;;;;;4950337;28;20469;-70
2023/10/18 00:38:24;;;;;;;17.05;9.00;;;;;;;;;;4941851;28;20041;-69
2023/10/18 00:40:51;;;;;;;17.60;9.55;;;;;;;;;;4953207;28;20047;-70
2023/10/18 00:43:20;;;;;;;16.00;8.88;;;;;;;;;;4956923;28;20060;-69
2023/10/18 00:45:51;;;;;;;19.27;9.73;;;5.20;99.90;;;;;;4950587;29;20047;-70
2023/10/18 00:48:19;;;;;;;15.57;9.30;;;5.30;99.90;;;;;;4954897;28;20039;-69
2023/10/18 00:50:48;;;;;;;19.00;10.00;;;;;;;;;;4950084;28;20055;-70
2023/10/18 00:53:22;;;;;;;15.13;9.63;;;;;;;;;;4957188;28;20057;-70
2023/10/18 00:56:04;;;;;;;20.08;10.27;;;;;;;;;;4950074;28;20505;-70
2023/10/18 00:58:31;;;;;;;17.92;10.23;;;;;;;;;;4922480;29;20054;-70
2023/10/18 01:01:08;;;;;;;17.08;10.40;;;5.40;99.90;;;;;;4949089;28;20066;-69
2023/10/18 01:03:41;;;;;;;20.10;10.07;;;;;;;;;;4950720;28;20150;-69
2023/10/18 01:06:08;;;;;;;23.15;11.25;;;;;;;;;;4949846;28;20054;-69
2023/10/18 01:08:37;;;;;;;21.13;11.15;;;;;;;;;;4957592;28;20045;-70
2023/10/18 01:11:06;;;;;;;22.15;10.93;;;;;;;;;;4953813;28;20517;-70
2023/10/18 01:13:40;;;;;;;18.65;10.88;;;;;;;;;;4961809;28;20054;-70
2023/10/18 01:16:21;;;;;;;23.48;11.75;;;;;;;;;;4948995;28;20054;-69
2023/10/18 01:18:47;;;;;;;20.50;11.65;;;;;;;;;;4964195;28;20126;-69
2023/10/18 01:28:02;;;;;;;21.92;11.25;;;;;;;;;;5265628;23;20065;-69
2023/10/18 01:30:29;;;;;;;21.48;11.07;;;;;;;;;;4980018;28;20649;-69
2023/10/18 01:32:55;;;;;;;19.00;11.68;;;;;;;;;;4976175;28;20061;-69
2023/10/18 01:35:21;;;;;;;24.75;12.95;;;;;;;;;;4971821;28;20157;-69
2023/10/18 01:37:49;;;;;;;22.77;12.32;;;;;;;;;;4973265;28;20073;-69
2023/10/18 01:40:22;;;;;;;25.05;14.35;;;;;;;;;;4980925;28;20054;-69
2023/10/18 01:42:56;;;;;;;25.60;12.90;;;;;;;;;;4975681;28;20502;-70
2023/10/18 01:45:26;;;;;;;23.88;12.13;;;;;;;;;;4982849;28;20043;-70
2023/10/18 01:47:52;;;;;;;27.05;14.02;;;;;;;;;;4972736;28;20050;-70
2023/10/18 01:50:18;;;;;;;25.08;13.05;;;;;;;;;;4978512;28;20054;-70
2023/10/18 01:52:45;;;;;;;27.90;13.82;;;;;;;;;;4975274;28;20046;-69
2023/10/18 01:55:12;;;;;;;23.40;13.60;;;;;;;;;;4981265;28;20038;-70
2023/10/18 01:57:43;;;;;;;23.60;12.50;;;;;;;;;;4973888;28;20078;-69
2023/10/18 02:00:25;;;;;;;25.10;15.02;;;;;;;;;;4975145;28;20045;-69
2023/10/18 02:02:51;;;;;;;28.90;15.07;;;;;;;;;;4975382;28;20540;-70
2023/10/18 02:05:18;;;;;;;23.83;14.52;;;;;;;;;;4972357;28;20053;-69
2023/10/18 02:11:09;;;;;;;24.90;12.88;;;;;;;;;;4977004;28;20057;-70
2023/10/18 02:13:36;;;;;;;27.67;14.02;;;;;;;;;;4978735;28;20050;-69
2023/10/18 02:16:06;;;;;;;29.88;14.80;;;;;;;;;;4978235;28;20500;-70
2023/10/18 02:18:32;;;;;;;25.73;13.98;;;;;;;;;;4974841;28;20478;-70
2023/10/18 02:20:58;;;;;;;28.50;15.05;;;;;;;;;;4976516;28;20568;-69
2023/10/18 02:23:26;;;;;;;31.20;15.70;;;;;;;;;;4977381;28;20078;-69
2023/10/18 02:25:52;;;;;;;33.67;17.02;;;;;;;;;;4977162;28;20149;-69
2023/10/18 02:28:22;;;;;;;29.48;14.90;;;;;;;;;;4979558;28;20141;-69
2023/10/18 02:33:56;;;;;;;30.58;14.57;;;;;;;;;;4973282;28;20487;-69
2023/10/18 02:36:24;;;;;;;29.55;15.10;;;;;;;;;;4978474;28;20050;-69
2023/10/18 02:38:50;;;;;;;33.08;15.88;;;;;;;;;;4983075;28;20046;-69
2023/10/18 02:41:26;;;;;;;28.38;16.55;;;;;;;;;;4981792;28;20046;-70
2023/10/18 02:43:54;;;;;;;32.22;15.05;;;;;;;;;;4978027;28;20043;-69
2023/10/18 02:46:24;;;;;;;25.83;12.85;;;;;;;;;;4976415;28;20511;-70
2023/10/18 02:48:53;;;;;;;29.38;14.82;;;;;;;;;;4974495;28;20089;-69
2023/10/18 02:51:24;;;;;;;30.45;15.48;;;;;;;;;;4972357;28;20145;-69
2023/10/18 02:54:04;;;;;;;29.58;16.52;;;;;;;;;;4976725;28;20077;-70
2023/10/18 02:56:33;;;;;;;26.02;15.40;;;;;;;;;;4977264;28;20109;-69
2023/10/18 02:58:59;;;;;;;34.47;16.52;;;;;;;;;;4977889;28;20123;-69
2023/10/18 03:01:28;;;;;;;36.15;16.35;;;;;;;;;;4981660;28;20053;-69
2023/10/18 03:07:16;;;;;;;29.23;16.75;;;;;;;;;;4976677;28;20514;-70
2023/10/18 03:09:49;;;;;;;32.78;16.08;;;;;;;;;;4972677;28;20133;-70
2023/10/18 03:12:15;;;;;;;27.90;15.70;;;;;;;;;;4973247;28;20504;-69
2023/10/18 03:14:53;;;;;;;32.35;16.73;;;;;;;;;;4979987;28;20049;-70
2023/10/18 03:19:50;;;;;;;34.28;17.75;;;;;;;;;;4972647;28;20106;-69
2023/10/18 03:22:20;;;;;;;31.35;15.93;;;;;;;;;;4979127;28;20050;-69
2023/10/18 03:24:58;;;;;;;30.25;16.42;;;;;;;;;;4959807;28;20933;-69
2023/10/18 03:27:29;;;;;;;33.42;17.13;;;;;;;;;;4977911;28;20542;-69
2023/10/18 03:29:58;;;;;;;32.03;15.88;;;;;;;;;;4980125;28;20841;-70
2023/10/18 03:32:24;;;;;;;33.20;16.30;;;;;;;;;;4976170;28;20047;-70
2023/10/18 03:34:53;;;;;;;30.42;16.65;;;;;;;;;;4972525;28;20053;-69
2023/10/18 03:37:24;;;;;;;31.35;16.83;;;;;;;;;;4978347;28;20512;-69
2023/10/18 03:39:54;;;;;;;33.22;17.08;;;;;;;;;;4974248;28;20098;-69
2023/10/18 03:53:30;;;;;;;31.52;17.20;;;;;;;;;;5038570;23;20086;-69
2023/10/18 04:04:44;;;;;;;31.98;16.63;;;;;;;;;;4988194;28;20093;-69
2023/10/18 04:07:13;;;;;;;27.45;15.85;;;;;;;;;;4989647;28;20186;-70
2023/10/18 04:09:45;;;;;;;29.15;16.50;;;;;;;;;;4981902;28;20649;-70
2023/10/18 04:12:16;;;;;;;31.75;17.50;;;;;;;;;;4959953;28;20054;-69
2023/10/18 04:14:52;;;;;;;34.10;17.17;;;;;;;;;;4963398;28;20539;-70
2023/10/18 04:17:19;;;;;;;31.30;15.23;;;;;;;;;;4955898;28;20602;-70
2023/10/18 04:19:47;;;;;;;32.67;17.15;;;;;;;;;;4952829;28;20087;-70
2023/10/18 04:25:26;;;;;;;33.05;16.73;;;;;;;;;;4962718;28;20046;-69
2023/10/18 04:27:59;;;;;;;31.30;17.08;;;;;;;;;;4962726;28;20577;-69
2023/10/18 04:30:25;;;;;;;33.15;16.77;;;;;;;;;;4960244;28;20105;-70
2023/10/18 04:32:59;;;;;;;32.10;17.13;;;;;;;;;;4958866;28;20061;-70
2023/10/18 04:35:26;;;;;;;31.98;17.70;;;;;;;;;;4962993;28;20046;-70
2023/10/18 04:37:53;;;;;;;33.67;16.20;;;;;;;;;;4961541;28;20077;-69
2023/10/18 04:40:22;;;;;;;32.83;16.75;;;;;;;;;;4964234;28;20042;-70
2023/10/18 04:57:59;;;;;;;25.95;14.88;;;;;;;;;;5001106;23;20557;-69
2023/10/18 05:00:35;;;;;;;34.92;16.95;;;;;;;;;;4949083;28;20080;-70
2023/10/18 05:03:07;;;;;;;29.25;16.80;;;;;;;;;;4936438;28;20620;-70
2023/10/18 05:05:37;;;;;;;30.40;17.20;;;;;;;;;;4917426;29;20055;-69
2023/10/18 05:08:05;;;;;;;31.10;17.27;;;;;;;;;;4935781;28;20869;-70
2023/10/18 05:10:31;;;;;;;30.42;16.90;;;;;;;;;;4916620;29;20103;-69
2023/10/18 05:15:29;;;;;;;30.20;16.48;;;;;;;;;;4919043;29;20059;-70
2023/10/18 05:18:04;;;;;;;25.60;16.38;;;;;;;;;;4921828;29;20049;-69
2023/10/18 05:23:19;;;;;;;30.75;17.45;;;;;;;;;;4921158;29;20062;-69
2023/10/18 05:29:09;;;;;;;29.05;15.88;;;;;;;;;;4922913;29;20098;-70
2023/10/18 05:32:09;;;;;;;29.25;17.27;;;;;;;;;;4939721;28;20118;-69
2023/10/18 05:34:49;;;;;;;27.38;16.52;;;;;;;;;;4919944;29;20056;-69
2023/10/18 05:37:15;;;;;;;28.33;17.52;;;;;;;;;;4936064;28;20059;-69
2023/10/18 05:39:49;;;;;;;31.45;17.38;;;5.10;99.90;;;;;;4928882;29;20043;-69
2023/10/18 05:42:20;;;;;;;31.27;17.38;;;;;;;;;;4926586;29;20058;-69
2023/10/18 05:44:47;;;;;;;29.30;16.88;;;;;;;;;;4933949;28;20445;-69
2023/10/18 05:47:13;;;;;;;28.27;15.93;;;;;;;;;;4932324;28;20730;-69
2023/10/18 05:49:42;;;;;;;26.75;16.60;;;;;;;;;;4922096;29;20048;-69
2023/10/18 05:54:34;;;;;;;27.95;16.85;;;;;;;;;;4927726;29;20513;-70
2023/10/18 05:57:01;;;;;;;26.60;16.55;;;;;;;;;;4939239;28;20493;-69
2023/10/18 05:59:33;;;;;;;26.58;16.73;;;;;;;;;;4937522;28;20483;-69
2023/10/18 06:02:10;;;;;;;30.27;17.02;;;;;;;;;;4935691;28;20054;-69
2023/10/18 06:04:42;;;;;;;29.25;17.10;;;;;;;;;;4939019;28;20525;-69
2023/10/18 06:07:12;;;;;;;32.92;17.27;;;;;;;;;;4938721;28;20139;-69
2023/10/18 06:09:46;;;;;;;28.85;16.92;;;;;;;;;;4937448;28;20062;-69
2023/10/18 06:12:14;;;;;;;32.67;17.98;;;;;;;;;;4936142;28;20111;-69
2023/10/18 06:14:40;;;;;;;28.58;16.92;;;;;;;;;;4925802;29;20048;-69
2023/10/18 06:17:12;;;;;;;28.27;16.67;;;5.00;99.90;;;;;;4934645;28;20490;-69
2023/10/18 06:19:38;;;;;;;32.97;19.30;;;;;;;;;;4921401;29;20107;-69
2023/10/18 06:24:49;;;;;;;26.70;16.95;;;;;;;;;;4913561;29;20064;-69
2023/10/18 06:27:16;;;;;;;29.15;17.58;;;;;;;;;;4922224;29;20056;-69
2023/10/18 06:29:43;;;;;;;25.60;16.35;;;;;;;;;;4938154;28;20048;-68
2023/10/18 06:32:13;;;;;;;30.67;17.75;;;;;;;;;;4936157;28;20082;-68
2023/10/18 06:34:41;;;;;;;29.35;18.42;;;;;;;;;;4931646;28;20059;-68
2023/10/18 06:37:09;;;;;;;28.30;16.25;;;;;;;;;;4937715;28;20051;-68
2023/10/18 06:39:35;;;;;;;32.70;17.23;;;;;;;;;;4934202;28;20044;-69
2023/10/18 06:42:06;;;;;;;30.42;17.50;;;;;;;;;;4942055;28;20053;-69
2023/10/18 06:44:33;;;;;;;29.48;17.48;;;;;;;;;;4922333;29;20051;-68
2023/10/18 06:47:01;;;;;;;25.95;15.13;;;;;;;;;;4925112;29;20042;-68
2023/10/18 06:49:27;;;;;;;27.25;16.42;;;;;;;;;;4928265;29;20046;-68
2023/10/18 06:51:53;;;;;;;27.65;16.23;;;;;;;;;;4916680;29;20046;-68
2023/10/18 06:54:31;;;;;;;31.15;17.23;;;;;;;;;;4935981;28;20859;-68
2023/10/18 06:57:15;;;;;;;27.23;15.98;;;;;;;;;;4937232;28;20075;-68
2023/10/18 06:59:45;;;;;;;27.38;16.83;;;5.90;99.90;;;;;;4935084;28;20095;-70
2023/10/18 07:02:12;;;;;;;24.90;16.20;;;;;;;;;;4923172;29;20090;-69
2023/10/18 07:04:38;;;;;;;28.10;15.15;;;;;;;;;;4920508;29;20470;-69
2023/10/18 07:07:11;;;;;;;23.30;14.52;;;;;;;;;;4934531;28;20607;-69
2023/10/18 07:09:37;;;;;;;29.42;16.45;;;;;;;;;;4925822;28;20051;-68
2023/10/18 07:12:03;;;;;;;27.65;15.05;;;;;;;;;;4937324;28;20402;-68
2023/10/18 07:14:31;;;;;;;28.60;15.73;;;;;;;;;;4919899;29;20079;-68
2023/10/18 07:17:01;;;;;;;26.67;16.70;;;;;;;;;;4923328;29;20799;-69
2023/10/18 07:19:29;;;;;;;28.58;16.73;;;;;;;;;;4930123;29;20748;-70
2023/10/18 07:22:05;;;;;;;28.52;16.20;;;;;;;;;;4933651;28;20557;-69
2023/10/18 07:24:36;;;;;;;26.80;16.15;;;;;;;;;;4934916;28;20063;-69
2023/10/18 07:27:09;;;;;;;30.60;16.83;;;;;;;;;;4922985;29;20143;-69
2023/10/18 07:29:45;;;;;;;27.13;15.80;;;;;;;;;;4931245;28;20048;-68
2023/10/18 07:32:14;;;;;;;24.75;14.65;;;;;;;;;;4916311;29;20051;-68
2023/10/18 07:34:42;;;;;;;27.08;16.00;;;;;;;;;;4928103;29;20044;-69
2023/10/18 07:37:17;;;;;;;25.02;15.50;;;;;;;;;;4939375;28;20059;-67
2023/10/18 07:39:56;;;;;;;30.77;14.65;;;;;;;;;;4950207;28;20048;-68
2023/10/18 07:42:34;;;;;;;22.65;15.15;;;;;;;;;;4938992;28;20051;-69
2023/10/18 07:45:04;;;;;;;28.27;15.63;;;;;;;;;;4924094;29;20056;-68
2023/10/18 07:47:32;;;;;;;26.52;16.52;;;;;;;;;;4935496;28;20066;-68
2023/10/18 07:49:58;;;;;;;26.08;16.52;;;;;;;;;;4925807;29;20090;-69
2023/10/18 07:52:24;;;;;;;28.58;16.35;;;;;;;;;;4932243;28;20505;-68
2023/10/18 07:54:50;;;;;;;24.65;14.25;;;;;;;;;;4920589;29;20048;-68
2023/10/18 07:57:17;;;;;;;22.80;13.77;;;;;;;;;;4940780;28;20651;-69
2023/10/18 07:59:46;;;;;;;26.05;14.35;;;;;;;;;;4921336;29;20047;-68
2023/10/18 08:02:13;;;;;;;24.38;15.15;;;;;;;;;;4939726;28;20052;-69
2023/10/18 08:04:42;;;;;;;24.58;14.27;;;;;;;;;;4921541;29;20047;-68
2023/10/18 08:07:27;;;;;;;22.88;12.63;;;7.20;99.90;;;;;;4948157;28;20474;-68
2023/10/18 08:09:54;;;;;;;25.20;13.82;;;;;;;;;;4924071;29;20048;-68
2023/10/18 08:12:33;;;;;;;24.45;13.38;;;;;;;;;;4925472;29;20051;-68
2023/10/18 08:14:59;;;;;;;25.10;14.45;;;;;;;;;;4921762;29;20051;-68
2023/10/18 08:17:44;;;;;;;24.40;14.25;;;;;;;;;;4924277;29;20691;-69
2023/10/18 08:22:52;;;;;;;20.27;13.35;;;7.30;99.90;;;;;;4927719;29;20102;-69
2023/10/18 08:25:21;;;;;;;23.45;14.77;;;;;;;;;;4918767;29;20091;-69
2023/10/18 08:27:54;;;;;;;22.65;12.88;;;;;;;;;;4915616;29;20052;-69
2023/10/18 08:30:24;;;;;;;20.70;11.95;;;;;;;;;;4934117;28;20534;-68
2023/10/18 08:32:53;;;;;;;21.73;12.82;;;;;;;;;;4924167;29;20044;-68
2023/10/18 08:35:20;;;;;;;21.58;13.48;;;;;;;;;;4937328;28;20206;-73
2023/10/18 08:37:46;;;;;;;18.83;11.23;;;;;;;;;;4944512;28;20048;-70
2023/10/18 08:40:17;;;;;;;19.75;11.80;;;;;;;;;;4919458;29;20055;-68
2023/10/18 08:42:50;;;;;;;23.02;11.88;;;;;;;;;;4924563;29;20913;-68
2023/10/18 08:45:21;;;;;;;22.60;12.35;;;;;;;;;;4945281;28;20055;-68
2023/10/18 08:47:49;;;;;;;18.00;10.88;;;;;;;;;;4921227;29;20661;-68
2023/10/18 08:50:17;;;;;;;18.05;11.05;;;;;;;;;;4941260;28;20054;-74
2023/10/18 08:52:48;;;;;;;20.67;12.05;;;;;;;;;;4939549;28;20051;-68
2023/10/18 08:55:43;;;;;;;22.75;11.27;;;;;;;;;;4944723;28;20051;-70
2023/10/18 08:58:10;;;;;;;14.63;9.35;;;;;;;;;;4939689;28;20060;-68
2023/10/18 09:03:10;;;;;;;19.92;11.52;;;;;;;;;;4925333;29;20192;-68
2023/10/18 09:05:36;;;;;;;15.52;8.73;;;;;;;;;;4937983;28;20118;-68
2023/10/18 09:08:07;;;;;;;17.50;10.75;;;;;;;;;;4923982;29;20566;-68
2023/10/18 09:10:42;;;;;;;18.27;10.60;;;;;;;;;;4938058;28;20148;-68
2023/10/18 09:18:20;;;;;;;13.27;9.30;;;;;;;;;;4923095;29;20055;-67
2023/10/18 09:20:46;;;;;;;15.73;9.75;;;;;;;;;;4925211;29;20047;-67
2023/10/18 09:23:21;;;;;;;13.98;8.90;;;;;;;;;;4923777;29;20103;-68
2023/10/18 09:25:50;;;;;;;15.27;10.90;;;;;;;;;;4922588;29;20470;-67
2023/10/18 09:30:48;;;;;;;14.07;8.35;;;9.50;99.90;;;;;;4921094;29;20078;-67
2023/10/18 09:33:14;;;;;;;15.38;9.55;;;;;;;;;;4927718;29;20510;-67
2023/10/18 09:35:40;;;;;;;15.45;9.93;;;;;;;;;;4923660;29;20143;-68
2023/10/18 09:38:09;;;;;;;16.08;7.72;;;;;;;;;;4916998;29;20052;-69
2023/10/18 09:40:36;;;;;;;14.90;9.38;;;;;;;;;;4924985;29;20126;-72
2023/10/18 09:43:03;;;;;;;16.38;9.68;;;;;;;;;;4939884;28;20051;-74
2023/10/18 09:45:29;;;;;;;14.88;9.10;;;;;;;;;;4922174;29;20043;-75
2023/10/18 09:47:58;;;;;;;14.73;9.02;;;;;;;;;;4927788;29;20095;-74
2023/10/18 09:50:28;;;;;;;15.23;9.90;;;;;;;;;;4919358;29;20044;-74
2023/10/18 09:52:58;;;;;;;12.98;8.15;;;;;;;;;;4938321;28;20168;-74
2023/10/18 09:55:38;;;;;;;13.20;7.70;;;;;;;;;;4955056;28;20044;-73
2023/10/18 09:58:20;;;;;;;12.25;8.63;;;;;;;;;;4922999;29;20437;-72
2023/10/18 10:00:55;;;;;;;15.30;8.20;;;;;;;;;;4928709;29;20140;-73
2023/10/18 10:04:07;;;;;;;13.67;6.90;;;;;;;;;;4925547;29;20043;-74
2023/10/18 10:06:45;;;;;;;15.55;8.68;;;;;;;;;;4905717;29;20079;-72
2023/10/18 10:11:43;;;;;;;12.98;7.32;;;;;;;;;;4924109;29;20781;-72
2023/10/18 10:14:10;;;;;;;16.75;6.55;;;;;;;;;;4928623;29;20052;-73
2023/10/18 10:16:37;;;;;;;14.63;8.65;;;;;;;;;;4922442;29;20051;-73
2023/10/18 10:19:09;;;;;;;13.45;8.68;;;;;;;;;;4938168;28;20073;-73
2023/10/18 10:21:36;;;;;;;15.07;9.02;;;;;;;;;;4942878;28;20047;-74
2023/10/18 10:24:29;;;;;;;11.13;7.68;;;;;;;;;;4925965;29;20052;-73
2023/10/18 10:26:51;;;;;;;12.77;7.75;;;;;;;;;;4925579;28;20422;-74
2023/10/18 10:31:58;;;;;;;11.20;7.20;;;;;;;;;;4924613;29;20051;-73
2023/10/18 10:34:37;;;;;;;13.63;8.10;;;;;;;;;;4941721;28;20043;-73
2023/10/18 10:37:16;;;;;;;;;;;;;;;;;;;;;
2023/10/18 10:40:19;;;;;;;10.68;7.45;;;;;;;;;;4923349;29;20094;-73
2023/10/18 10:42:43;;;;;;;12.60;6.90;;;;;;;;;;4921917;29;20114;-73
2023/10/18 10:51:11;;;;;;;12.63;8.00;;;;;;;;;;4921652;29;20055;-73
2023/10/18 10:56:47;;;;;;;;;;;;;;;;;;;;;
2023/10/18 11:02:16;;;;;;;13.25;8.15;;;;;;;;;;4919442;29;20055;-73
2023/10/18 11:04:58;;;;;;;13.32;7.75;;;;;;;;;;4939164;28;20062;-73
2023/10/18 11:07:25;;;;;;;12.63;8.48;;;;;;;;;;4913204;29;20059;-73
2023/10/18 11:10:06;;;;;;;14.73;7.70;;;;;;;;;;4938347;28;20052;-73
2023/10/18 11:12:33;;;;;;;10.43;7.65;;;;;;;;;;4941532;28;20056;-73
2023/10/18 11:15:00;;;;;;;13.48;8.10;;;;;;;;;;4924166;29;20079;-73
2023/10/18 11:17:27;;;;;;;11.40;7.45;;;;;;;;;;4938516;28;20613;-72
2023/10/18 11:19:53;;;;;;;11.50;7.72;;;;;;;;;;4932965;28;20051;-73
2023/10/18 11:22:20;;;;;;;10.60;7.45;;;;;;;;;;4937263;28;20052;-73
2023/10/18 11:24:53;;;;;;;14.48;6.90;;;10.80;99.90;;;;;;4935398;28;20055;-75
2023/10/18 11:27:25;;;;;;;13.23;8.63;;;10.80;99.90;;;;;;4916472;29;20481;-74
2023/10/18 11:30:04;;;;;;;12.00;6.82;;;;;;;;;;4923880;29;20090;-73
2023/10/18 11:32:29;;;;;;;12.93;8.20;;;;;;;;;;4919965;29;20040;-73
2023/10/18 11:35:09;;;;;;;9.20;7.18;;;;;;;;;;4928462;29;20106;-71
2023/10/18 11:37:36;;;;;;;15.40;7.75;;;;;;;;;;4923538;29;20039;-73
2023/10/18 11:40:16;;;;;;;18.17;6.22;;;10.70;99.90;;;;;;4935975;28;20071;-74
2023/10/18 11:42:53;;;;;;;9.43;5.38;;;;;;;;;;4925087;29;20055;-73
2023/10/18 11:45:20;;;;;;;12.32;7.00;;;;;;;;;;4943569;28;20056;-75
2023/10/18 11:47:50;;;;;;;10.38;5.85;;;;;;;;;;4925464;29;20467;-74
2023/10/18 11:50:16;;;;;;;11.52;6.90;;;;;;;;;;4934237;28;20044;-74
2023/10/18 11:52:42;;;;;;;14.07;8.05;;;;;;;;;;4957481;28;20529;-74
2023/10/18 11:55:09;;;;;;;12.43;6.82;;;;;;;;;;4921279;29;20503;-74
2023/10/18 11:57:46;;;;;;;12.60;7.85;;;;;;;;;;4928405;29;20055;-74
2023/10/18 12:02:51;;;;;;;10.75;6.40;;;;;;;;;;4929794;29;20145;-75
2023/10/18 12:05:23;;;;;;;11.10;6.95;;;;;;;;;;4929035;29;20776;-74
2023/10/18 12:07:49;;;;;;;10.95;7.43;;;;;;;;;;4940867;28;20052;-73
2023/10/18 12:10:25;;;;;;;12.23;7.30;;;;;;;;;;4930765;29;20054;-74
2023/10/18 12:12:52;;;;;;;12.15;6.55;;;;;;;;;;4925685;28;20299;-73
2023/10/18 12:15:19;;;;;;;10.57;6.85;;;;;;;;;;4926687;29;20043;-76
2023/10/18 12:17:46;;;;;;;15.27;6.95;;;;;;;;;;4929044;29;20051;-73
2023/10/18 12:20:13;;;;;;;8.32;5.55;;;;;;;;;;4936971;28;20154;-75
2023/10/18 12:23:10;;;;;;;10.77;6.15;;;;;;;;;;4943960;28;20106;-73
2023/10/18 12:25:38;;;;;;;9.20;5.88;;;;;;;;;;4928066;29;20167;-73
2023/10/18 12:28:04;;;;;;;9.35;5.97;;;;;;;;;;4926772;29;20058;-73
2023/10/18 12:30:38;;;;;;;12.43;6.72;;;;;;;;;;4937100;28;20486;-73
2023/10/18 12:33:05;;;;;;;9.43;6.32;;;;;;;;;;4927816;29;20083;-73
2023/10/18 12:35:31;;;;;;;10.85;6.80;;;;;;;;;;4943772;28;20060;-74
2023/10/18 12:37:57;;;;;;;10.88;5.93;;;;;;;;;;4927098;29;20054;-73
2023/10/18 12:40:41;;;;;;;9.50;6.45;;;;;;;;;;4937960;28;20044;-73
2023/10/18 12:43:19;;;;;;;8.00;4.60;;;;;;;;;;4940239;28;20055;-72
2023/10/18 12:45:52;;;;;;;8.73;5.80;;;;;;;;;;4933765;28;20055;-73
2023/10/18 12:48:27;;;;;;;8.60;5.32;;;;;;;;;;4939846;28;20047;-73
2023/10/18 12:50:54;;;;;;;9.65;5.40;;;;;;;;;;4938692;28;20388;-73
2023/10/18 12:55:59;;;;;;;9.98;6.45;;;;;;;;;;4959776;28;20099;-74
2023/10/18 12:58:47;;;;;;;7.50;4.93;;;11.60;99.90;;;;;;4937697;28;20060;-73
2023/10/18 13:01:11;;;;;;;8.63;5.03;;;;;;;;;;4926767;29;20083;-72
2023/10/18 13:03:38;;;;;;;6.18;4.55;;;;;;;;;;4928052;29;20773;-71
2023/10/18 13:06:15;;;;;;;6.75;4.00;;;;;;;;;;4943505;28;20047;-72
2023/10/18 13:08:53;;;;;;;8.00;5.15;;;;;;;;;;4926137;29;20048;-73
2023/10/18 13:11:44;;;;;;;10.18;5.75;;;;;;;;;;4923926;29;20043;-72
2023/10/18 13:14:06;;;;;;;8.57;5.97;;;;;;;;;;4925629;29;20410;-72
2023/10/18 13:16:32;;;;;;;9.82;5.75;;;;;;;;;;4932176;29;20856;-73
2023/10/18 13:18:58;;;;;;;9.50;6.43;;;;;;;;;;4925895;29;20047;-74
2023/10/18 13:21:27;;;;;;;9.30;5.55;;;;;;;;;;4922378;29;20154;-74
2023/10/18 13:23:59;;;;;;;10.98;5.75;;;;;;;;;;4931386;29;20801;-73
2023/10/18 13:26:31;;;;;;;8.55;6.60;;;;;;;;;;4929404;29;20059;-73
2023/10/18 13:29:00;;;;;;;12.88;7.68;;;11.40;99.90;;;;;;4954800;28;20071;-73
2023/10/18 13:31:31;;;;;;;10.65;6.80;;;;;;;;;;4924550;29;20481;-73
2023/10/18 13:34:06;;;;;;;10.73;6.75;;;11.30;99.90;;;;;;4943874;28;20058;-74
2023/10/18 13:36:33;;;;;;;10.27;5.78;;;;;;;;;;4940546;28;20043;-73
2023/10/18 13:39:00;;;;;;;9.13;6.07;;;;;;;;;;4924165;29;20044;-74
2023/10/18 13:41:26;;;;;;;9.35;6.28;;;;;;;;;;4929043;29;20048;-72
2023/10/18 13:43:54;;;;;;;12.27;6.93;;;;;;;;;;4943241;28;20043;-72
2023/10/18 13:46:22;;;;;;;11.00;7.07;;;;;;;;;;4937826;28;20521;-72
2023/10/18 13:48:51;;;;;;;12.30;6.75;;;;;;;;;;4921417;29;20056;-72
2023/10/18 13:51:18;;;;;;;15.65;8.23;;;;;;;;;;4925036;29;20126;-72
2023/10/18 13:53:45;;;;;;;11.70;7.40;;;;;;;;;;4935803;28;20063;-70
2023/10/18 13:56:12;;;;;;;12.07;6.75;;;;;;;;;;4923465;29;20447;-72
2023/10/18 13:58:39;;;;;;;9.68;6.75;;;;;;;;;;4927479;29;20044;-71
2023/10/18 14:01:05;;;;;;;12.18;7.65;;;;;;;;;;4939493;28;20039;-71
2023/10/18 14:03:32;;;;;;;11.80;6.47;;;;;;;;;;4935877;28;20114;-71
2023/10/18 14:05:59;;;;;;;10.27;6.43;;;;;;;;;;4936152;28;20126;-71
2023/10/18 14:08:25;;;;;;;14.48;7.95;;;;;;;;;;4924168;29;20051;-71
2023/10/18 14:10:54;;;;;;;10.48;6.85;;;;;;;;;;4938293;28;20130;-71
2023/10/18 14:13:23;;;;;;;9.38;5.72;;;;;;;;;;4949524;28;20131;-71
2023/10/18 14:15:49;;;;;;;13.32;7.93;;;;;;;;;;4935300;28;20588;-71
2023/10/18 14:18:15;;;;;;;9.55;6.80;;;;;;;;;;4939162;28;20080;-71
2023/10/18 14:20:50;;;;;;;17.20;8.35;;;;;;;;;;4916716;29;20040;-71
2023/10/18 14:23:19;;;;;;;11.77;7.45;;;;;;;;;;4934949;28;20530;-71
2023/10/18 14:25:45;;;;;;;11.65;7.13;;;;;;;;;;4940342;28;20055;-71
2023/10/18 14:28:14;;;;;;;16.13;7.75;;;;;;;;;;4937847;28;20446;-69
2023/10/18 14:30:40;;;;;;;14.80;7.70;;;;;;;;;;4933063;28;20486;-71
2023/10/18 14:33:07;;;;;;;14.93;6.75;;;;;;;;;;4937154;28;20138;-71
2023/10/18 14:35:33;;;;;;;12.50;7.85;;;;;;;;;;4938490;28;20666;-71
2023/10/18 14:38:00;;;;;;;11.10;6.93;;;;;;;;;;4923438;29;20043;-71
2023/10/18 14:40:27;;;;;;;14.48;7.65;;;;;;;;;;4918882;29;20043;-71
2023/10/18 14:42:55;;;;;;;11.88;7.70;;;;;;;;;;4935217;28;20056;-72
2023/10/18 14:45:24;;;;;;;12.65;7.85;;;;;;;;;;4937554;28;20058;-72
2023/10/18 14:47:52;;;;;;;17.10;8.82;;;;;;;;;;4945326;28;20055;-72
2023/10/18 14:50:19;;;;;;;10.13;6.70;;;;;;;;;;4928956;28;20159;-75
2023/10/18 14:52:45;;;;;;;13.75;7.38;;;;;;;;;;4935936;28;20048;-75
2023/10/18 14:55:11;;;;;;;11.23;7.47;;;;;;;;;;4921902;29;20047;-74
2023/10/18 14:57:42;;;;;;;14.60;7.50;;;;;;;;;;4942551;28;20066;-75
2023/10/18 15:00:11;;;;;;;15.52;8.77;;;;;;;;;;4926911;29;20127;-75
2023/10/18 15:02:40;;;;;;;11.98;8.23;;;;;;;;;;4937628;28;20059;-75
2023/10/18 15:05:09;;;;;;;16.55;7.93;;;;;;;;;;4921758;29;20130;-73
2023/10/18 15:07:38;;;;;;;12.65;8.45;;;;;;;;;;4917437;29;20067;-73
2023/10/18 15:10:06;;;;;;;15.20;7.93;;;;;;;;;;4939437;28;20043;-73
2023/10/18 15:12:32;;;;;;;14.65;8.23;;;;;;;;;;4933792;28;20079;-73
2023/10/18 15:14:58;;;;;;;16.00;8.55;;;;;;;;;;4927733;29;20048;-75
2023/10/18 15:17:28;;;;;;;16.30;8.35;;;;;;;;;;4941470;28;20102;-74
2023/10/18 15:19:55;;;;;;;14.10;7.95;;;;;;;;;;4941082;28;20414;-77
2023/10/18 15:22:21;;;;;;;11.60;7.25;;;;;;;;;;4939978;28;20142;-74
2023/10/18 15:24:50;;;;;;;13.50;7.88;;;;;;;;;;4920161;29;20070;-73
2023/10/18 15:27:16;;;;;;;15.45;8.00;;;;;;;;;;4937337;28;20695;-74
2023/10/18 15:29:42;;;;;;;16.67;8.52;;;;;;;;;;4938491;28;20083;-73
2023/10/18 15:32:12;;;;;;;16.45;9.15;;;;;;;;;;4938945;28;20036;-73
2023/10/18 15:34:38;;;;;;;12.48;7.95;;;;;;;;;;4944431;28;20094;-75
2023/10/18 15:37:06;;;;;;;15.15;8.07;;;;;;;;;;4948838;28;20168;-73
2023/10/18 15:39:32;;;;;;;15.27;8.48;;;;;;;;;;4928724;29;20923;-73
2023/10/18 15:41:58;;;;;;;13.10;8.77;;;;;;;;;;4927948;29;20147;-75
2023/10/18 15:44:24;;;;;;;13.68;7.88;;;;;;;;;;4946380;28;20569;-75
2023/10/18 15:46:50;;;;;;;14.48;7.97;;;;;;;;;;4934595;29;20048;-75
2023/10/18 15:49:17;;;;;;;14.10;8.57;;;;;;;;;;4946908;28;20055;-75
2023/10/18 15:51:43;;;;;;;13.70;8.80;;;;;;;;;;4940974;28;20102;-75
2023/10/18 15:54:11;;;;;;;15.85;8.27;;;;;;;;;;4946287;28;20047;-74
2023/10/18 15:56:37;;;;;;;15.85;9.18;;;;;;;;;;4937107;29;20059;-74
2023/10/18 16:12:23;;;;;;;13.85;8.68;;;;;;;;;;4965933;28;20046;-73
2023/10/18 16:14:51;;;;;;;13.02;8.00;;;;;;;;;;4950567;28;20059;-73
2023/10/18 16:17:17;;;;;;;15.55;8.55;;;;;;;;;;4967618;28;20038;-74
2023/10/18 16:19:48;;;;;;;11.15;6.63;;;;;;;;;;4967645;28;20729;-73
2023/10/18 16:22:14;;;;;;;13.75;8.80;;;;;;;;;;4964370;28;20501;-73
2023/10/18 16:24:41;;;;;;;14.63;8.27;;;;;;;;;;4971804;28;20078;-74
2023/10/18 16:27:06;;;;;;;13.65;7.15;;;;;;;;;;4967256;28;20050;-72
2023/10/18 16:29:33;;;;;;;14.55;8.40;;;;;;;;;;4966107;28;20102;-74
2023/10/18 16:31:59;;;;;;;11.70;7.30;;;;;;;;;;4965382;28;20050;-73
2023/10/18 16:34:25;;;;;;;14.73;7.78;;;;;;;;;;4964326;28;20058;-73
2023/10/18 16:36:51;;;;;;;13.52;8.02;;;;;;;;;;4966534;28;20832;-75